createdAt,value
2022-09-01T00:01:59.004Z,100595.38
2022-09-01T00:04:31.221Z,100595.23
2022-09-01T00:07:03.576Z,100594.77
2022-09-01T00:09:37.802Z,100598.45
2022-09-01T00:12:12.313Z,100593.64
2022-09-01T00:14:47.313Z,100588.81
2022-09-01T00:17:32.169Z,100584.86
2022-09-01T00:20:08.159Z,100586.22
2022-09-01T00:22:40.539Z,100580.94
2022-09-01T00:25:13.867Z,100579.66
2022-09-01T00:27:44.789Z,100575.27
2022-09-01T00:30:21.562Z,100582.59
2022-09-01T00:32:59.584Z,100585.30
2022-09-01T00:35:50.457Z,100586.39
2022-09-01T00:38:24.323Z,100588.55
2022-09-01T00:41:02.596Z,100585.11
2022-09-01T00:43:41.479Z,100588.02
2022-09-01T00:46:22.850Z,100585.64
2022-09-01T00:49:00.761Z,100588.10
2022-09-01T00:51:35.710Z,100586.23
2022-09-01T00:54:16.133Z,100589.35
2022-09-01T00:56:47.201Z,100590.36
2022-09-01T00:59:26.498Z,100588.73
2022-09-01T01:02:08.139Z,100583.03
2022-09-01T01:04:43.984Z,100582.38
2022-09-01T01:07:18.828Z,100581.20
2022-09-01T01:09:54.832Z,100581.66
2022-09-01T01:15:29.995Z,100582.44
2022-09-01T01:18:09.321Z,100579.27
2022-09-01T01:21:01.000Z,100574.45
2022-09-01T01:23:42.626Z,100574.24
2022-09-01T01:26:13.746Z,100567.58
2022-09-01T01:28:55.661Z,100567.80
2022-09-01T01:31:54.066Z,100568.95
2022-09-01T01:34:30.579Z,100569.01
2022-09-01T01:37:07.098Z,100567.75
2022-09-01T01:39:43.071Z,100563.67
2022-09-01T01:42:27.004Z,100561.59
2022-09-01T01:45:03.881Z,100559.66
2022-09-01T01:47:53.773Z,100559.63
2022-09-01T01:50:29.728Z,100558.64
2022-09-01T01:53:10.915Z,100562.34
2022-09-01T01:55:53.666Z,100562.02
2022-09-01T01:58:25.714Z,100561.18
2022-09-01T02:01:03.789Z,100562.06
2022-09-01T02:03:44.649Z,100562.54
2022-09-01T02:06:25.577Z,100561.23
2022-09-01T02:09:03.844Z,100560.96
2022-09-01T02:11:38.158Z,100562.90
2022-09-01T02:14:35.242Z,100562.92
2022-09-01T02:17:07.363Z,100566.95
2022-09-01T02:19:47.554Z,100567.63
2022-09-01T02:22:33.195Z,100569.25
2022-09-01T02:25:10.966Z,100570.70
2022-09-01T02:27:43.834Z,100569.63
2022-09-01T02:30:16.767Z,100568.23
2022-09-01T02:33:05.622Z,100564.96
2022-09-01T02:35:40.638Z,100561.91
2022-09-01T02:38:14.298Z,100557.15
2022-09-01T02:40:56.376Z,100559.38
2022-09-01T02:43:30.922Z,100555.59
2022-09-01T02:46:04.622Z,100555.89
2022-09-01T02:48:46.355Z,100549.48
2022-09-01T02:51:18.458Z,100552.27
2022-09-01T02:53:53.166Z,100550.95
2022-09-01T02:56:27.826Z,100549.59
2022-09-01T02:59:13.187Z,100552.64
2022-09-01T03:01:47.684Z,100555.13
2022-09-01T03:04:23.058Z,100555.05
2022-09-01T03:06:59.184Z,100552.51
2022-09-01T03:09:38.101Z,100555.50
2022-09-01T03:12:18.459Z,100551.83
2022-09-01T03:14:50.586Z,100550.77
2022-09-01T03:17:24.519Z,100555.65
2022-09-01T03:20:03.755Z,100555.52
2022-09-01T03:22:39.840Z,100556.84
2022-09-01T03:25:14.646Z,100557.80
2022-09-01T03:27:48.888Z,100558.26
2022-09-01T03:30:29.762Z,100554.67
2022-09-01T03:33:02.624Z,100555.16
2022-09-01T03:35:38.902Z,100555.10
2022-09-01T03:38:13.023Z,100555.28
2022-09-01T03:40:45.527Z,100555.52
2022-09-01T03:43:25.702Z,100557.21
2022-09-01T03:46:01.799Z,100559.90
2022-09-01T03:48:53.183Z,100560.09
2022-09-01T03:51:27.532Z,100555.73
2022-09-01T03:54:03.273Z,100558.80
2022-09-01T03:56:41.947Z,100560.19
2022-09-01T03:59:24.149Z,100564.48
2022-09-01T04:02:15.761Z,100559.05
2022-09-01T04:04:53.837Z,100562.58
2022-09-01T04:07:48.310Z,100562.31
2022-09-01T04:10:27.114Z,100563.45
2022-09-01T04:13:00.749Z,100569.23
2022-09-01T04:15:39.293Z,100561.30
2022-09-01T04:18:20.568Z,100559.80
2022-09-01T04:20:56.972Z,100557.41
2022-09-01T04:23:47.824Z,100560.58
2022-09-01T04:26:24.161Z,100557.09
2022-09-01T04:28:58.796Z,100553.36
2022-09-01T04:31:33.736Z,100559.83
2022-09-01T04:34:13.383Z,100556.75
2022-09-01T04:36:55.157Z,100556.60
2022-09-01T04:39:44.975Z,100558.57
2022-09-01T04:42:24.386Z,100562.60
2022-09-01T04:45:10.344Z,100563.80
2022-09-01T04:48:00.033Z,100565.70
2022-09-01T04:50:31.228Z,100570.06
2022-09-01T04:53:07.005Z,100569.59
2022-09-01T04:55:52.227Z,100572.33
2022-09-01T04:58:37.862Z,100576.45
2022-09-01T05:01:16.404Z,100576.40
2022-09-01T05:04:04.103Z,100580.64
2022-09-01T05:06:37.517Z,100573.81
2022-09-01T05:09:10.084Z,100575.69
2022-09-01T05:11:47.350Z,100581.58
2022-09-01T05:14:21.665Z,100584.41
2022-09-01T05:17:10.429Z,100584.40
2022-09-01T05:19:43.271Z,100585.83
2022-09-01T05:22:27.294Z,100586.32
2022-09-01T05:25:12.328Z,100581.55
2022-09-01T05:27:49.830Z,100581.54
2022-09-01T05:30:26.988Z,100583.15
2022-09-01T05:33:09.866Z,100577.45
2022-09-01T05:35:56.348Z,100573.35
2022-09-01T05:38:33.944Z,100568.59
2022-09-01T05:41:11.180Z,100568.33
2022-09-01T05:43:45.531Z,100568.83
2022-09-01T05:46:17.252Z,100570.86
2022-09-01T05:48:54.498Z,100575.64
2022-09-01T05:51:44.396Z,100580.03
2022-09-01T05:54:18.956Z,100579.10
2022-09-01T05:56:56.025Z,100579.48
2022-09-01T05:59:31.541Z,100580.38
2022-09-01T06:02:15.770Z,100577.49
2022-09-01T06:04:49.131Z,100580.33
2022-09-01T06:07:33.809Z,100586.03
2022-09-01T06:12:54.610Z,100596.57
2022-09-01T06:15:36.390Z,100602.87
2022-09-01T06:18:11.919Z,100602.81
2022-09-01T06:20:45.310Z,100603.08
2022-09-01T06:23:19.613Z,100606.85
2022-09-01T06:25:51.688Z,100605.52
2022-09-01T06:28:27.816Z,100608.04
2022-09-01T06:31:01.913Z,100612.73
2022-09-01T06:33:49.024Z,100617.69
2022-09-01T06:36:25.965Z,100618.29
2022-09-01T06:38:58.094Z,100619.62
2022-09-01T06:41:31.516Z,100618.89
2022-09-01T06:44:13.880Z,100619.55
2022-09-01T06:46:47.640Z,100627.41
2022-09-01T06:49:22.101Z,100624.16
2022-09-01T06:51:53.620Z,100630.43
2022-09-01T06:54:31.551Z,100628.01
2022-09-01T06:59:56.392Z,100629.39
2022-09-01T07:02:29.347Z,100628.89
2022-09-01T07:05:03.480Z,100631.77
2022-09-01T07:08:04.753Z,100633.95
2022-09-01T07:16:52.538Z,100641.35
2022-09-01T07:19:48.416Z,100647.48
2022-09-01T07:22:36.028Z,100642.55
2022-09-01T07:25:14.114Z,100639.55
2022-09-01T07:27:50.787Z,100638.58
2022-09-01T07:30:27.118Z,100641.19
2022-09-01T07:33:41.776Z,100645.27
2022-09-01T07:36:26.996Z,100638.41
2022-09-01T07:44:49.203Z,100630.60
2022-09-01T07:53:11.660Z,100633.99
2022-09-01T07:55:50.155Z,100633.62
2022-09-01T07:58:27.255Z,100632.96
2022-09-01T08:01:03.770Z,100631.49
2022-09-01T08:03:45.376Z,100627.21
2022-09-01T08:06:19.920Z,100624.25
2022-09-01T08:08:57.036Z,100626.71
2022-09-01T08:11:58.564Z,100622.96
2022-09-01T08:14:26.252Z,100617.04
2022-09-01T08:20:22.472Z,100614.08
2022-09-01T08:22:59.027Z,100616.38
2022-09-01T08:25:29.860Z,100618.38
2022-09-01T08:28:04.912Z,100617.83
2022-09-01T08:30:42.084Z,100617.77
2022-09-01T08:33:35.380Z,100617.53
2022-09-01T08:36:10.620Z,100619.42
2022-09-01T08:38:41.755Z,100614.86
2022-09-01T08:41:28.811Z,100620.23
2022-09-01T08:47:35.438Z,100606.52
2022-09-01T08:50:18.215Z,100603.77
2022-09-01T08:53:09.162Z,100597.86
2022-09-01T08:55:43.986Z,100597.79
2022-09-01T08:58:18.571Z,100590.84
2022-09-01T09:01:00.653Z,100587.23
2022-09-01T09:03:40.952Z,100584.39
2022-09-01T09:06:17.037Z,100589.71
2022-09-01T09:08:52.809Z,100588.30
2022-09-01T09:11:28.624Z,100581.69
2022-09-01T09:14:06.434Z,100580.27
2022-09-01T09:16:37.612Z,100577.42
2022-09-01T09:19:20.687Z,100577.08
2022-09-01T09:21:59.748Z,100572.20
2022-09-01T09:24:47.466Z,100573.20
2022-09-01T09:27:22.898Z,100574.02
2022-09-01T09:30:09.198Z,100577.34
2022-09-01T09:33:19.918Z,100572.89
2022-09-01T09:35:39.865Z,100573.65
2022-09-01T09:38:29.387Z,100575.94
2022-09-01T09:41:16.598Z,100576.27
2022-09-01T09:44:14.900Z,100574.88
2022-09-01T09:47:17.291Z,100570.95
2022-09-01T09:49:57.825Z,100572.63
2022-09-01T09:52:33.609Z,100565.84
2022-09-01T09:55:08.208Z,100567.05
2022-09-01T09:57:52.318Z,100569.44
2022-09-01T10:00:25.866Z,100569.17
2022-09-01T10:03:12.839Z,100565.80
2022-09-01T10:06:01.502Z,100561.36
2022-09-01T10:08:45.317Z,100558.98
2022-09-01T10:11:35.666Z,100561.07
2022-09-01T10:14:09.331Z,100555.22
2022-09-01T10:16:47.907Z,100557.80
2022-09-01T10:19:20.022Z,100561.46
2022-09-01T10:22:15.108Z,100555.64
2022-09-01T10:24:50.501Z,100555.16
2022-09-01T10:27:46.606Z,100548.95
2022-09-01T10:30:22.897Z,100548.28
2022-09-01T10:32:58.893Z,100547.95
2022-09-01T10:35:40.557Z,100544.70
2022-09-01T10:38:22.491Z,100539.73
2022-09-01T10:41:07.442Z,100540.70
2022-09-01T10:43:42.757Z,100539.37
2022-09-01T10:46:50.233Z,100538.63
2022-09-01T10:49:46.050Z,100534.22
2022-09-01T10:52:34.261Z,100533.26
2022-09-01T10:55:09.906Z,100529.97
2022-09-01T10:57:48.951Z,100527.05
2022-09-01T11:01:10.700Z,100523.34
2022-09-01T11:04:03.496Z,100515.17
2022-09-01T11:07:13.070Z,100508.90
2022-09-01T11:12:51.379Z,100508.13
2022-09-01T11:15:39.591Z,100505.48
2022-09-01T11:18:17.480Z,100504.55
2022-09-01T11:20:58.529Z,100505.11
2022-09-01T11:23:36.788Z,100508.20
2022-09-01T11:26:37.401Z,100500.99
2022-09-01T11:29:09.886Z,100503.14
2022-09-01T11:31:54.682Z,100506.55
2022-09-01T11:34:28.395Z,100505.36
2022-09-01T11:37:12.260Z,100501.05
2022-09-01T11:39:47.248Z,100496.70
2022-09-01T11:42:31.398Z,100492.14
2022-09-01T11:45:03.591Z,100498.77
2022-09-01T11:47:40.296Z,100495.81
2022-09-01T11:50:21.252Z,100494.66
2022-09-01T11:53:15.476Z,100493.35
2022-09-01T11:55:51.323Z,100488.92
2022-09-01T11:58:39.412Z,100481.42
2022-09-01T12:01:28.124Z,100484.09
2022-09-01T12:04:19.198Z,100485.67
2022-09-01T12:06:57.328Z,100483.98
2022-09-01T12:09:38.690Z,100480.15
2022-09-01T12:12:10.572Z,100477.98
2022-09-01T12:15:04.703Z,100477.95
2022-09-01T12:17:41.729Z,100470.64
2022-09-01T12:20:28.098Z,100472.46
2022-09-01T12:23:04.856Z,100468.60
2022-09-01T12:25:47.433Z,100471.96
2022-09-01T12:28:23.919Z,100470.67
2022-09-01T12:31:07.379Z,100473.61
2022-09-01T12:36:25.200Z,100472.19
2022-09-01T12:39:02.223Z,100464.62
2022-09-01T12:41:41.639Z,100472.74
2022-09-01T12:44:31.985Z,100471.36
2022-09-01T12:47:17.834Z,100469.55
2022-09-01T12:49:52.120Z,100471.66
2022-09-01T12:52:26.912Z,100468.44
2022-09-01T12:55:12.223Z,100469.44
2022-09-01T12:57:52.382Z,100469.31
2022-09-01T13:00:25.636Z,100471.48
2022-09-01T13:03:09.597Z,100466.11
2022-09-01T13:05:42.932Z,100467.35
2022-09-01T13:08:21.890Z,100463.52
2022-09-01T13:10:56.584Z,100460.69
2022-09-01T13:13:35.065Z,100466.34
2022-09-01T13:16:14.197Z,100462.35
2022-09-01T13:24:34.192Z,100457.62
2022-09-01T13:27:21.789Z,100457.43
2022-09-01T13:29:55.701Z,100454.96
2022-09-01T13:32:29.409Z,100456.39
2022-09-01T13:35:13.427Z,100450.33
2022-09-01T13:37:52.162Z,100449.44
2022-09-01T13:40:24.022Z,100446.83
2022-09-01T13:42:56.156Z,100448.09
2022-09-01T13:45:30.732Z,100449.23
2022-09-01T13:48:19.063Z,100446.36
2022-09-01T13:53:50.863Z,100450.90
2022-09-01T13:56:28.052Z,100450.20
2022-09-01T13:59:01.251Z,100441.44
2022-09-01T14:01:34.205Z,100444.96
2022-09-01T14:04:10.461Z,100442.92
2022-09-01T14:06:45.321Z,100438.07
2022-09-01T14:09:25.462Z,100439.08
2022-09-01T14:12:01.898Z,100432.93
2022-09-01T14:17:39.829Z,100434.34
2022-09-01T14:20:14.577Z,100430.99
2022-09-01T14:22:52.307Z,100435.85
2022-09-01T14:25:23.479Z,100439.07
2022-09-01T14:27:57.495Z,100436.09
2022-09-01T14:33:41.271Z,100441.78
2022-09-01T14:36:19.666Z,100440.23
2022-09-01T14:39:01.123Z,100438.02
2022-09-01T14:41:35.893Z,100439.56
2022-09-01T14:44:07.014Z,100437.30
2022-09-01T14:46:51.442Z,100441.01
2022-09-01T14:49:36.845Z,100451.52
2022-09-01T14:52:24.914Z,100446.83
2022-09-01T14:55:36.407Z,100448.31
2022-09-01T14:58:17.653Z,100442.84
2022-09-01T15:00:52.339Z,100445.46
2022-09-01T15:03:50.176Z,100444.79
2022-09-01T15:06:46.757Z,100445.04
2022-09-01T15:09:42.524Z,100446.73
2022-09-01T15:12:21.824Z,100440.10
2022-09-01T15:15:00.033Z,100444.02
2022-09-01T15:17:33.891Z,100448.36
2022-09-01T15:20:32.518Z,100449.95
2022-09-01T15:23:06.016Z,100447.90
2022-09-01T15:25:39.494Z,100446.30
2022-09-01T15:28:11.568Z,100447.80
2022-09-01T15:30:48.279Z,100446.29
2022-09-01T15:33:26.488Z,100445.57
2022-09-01T15:36:00.544Z,100454.70
2022-09-01T15:38:31.962Z,100453.88
2022-09-01T15:41:05.552Z,100455.20
2022-09-01T15:43:38.718Z,100456.38
2022-09-01T15:46:14.598Z,100454.58
2022-09-01T15:48:48.082Z,100455.91
2022-09-01T15:51:36.727Z,100453.23
2022-09-01T15:54:19.375Z,100453.38
2022-09-01T15:56:50.385Z,100451.20
2022-09-01T15:59:29.754Z,100450.48
2022-09-01T16:02:02.363Z,100447.93
2022-09-01T16:04:48.746Z,100448.50
2022-09-01T16:07:23.081Z,100446.49
2022-09-01T16:09:59.370Z,100446.64
2022-09-01T16:12:31.267Z,100445.64
2022-09-01T16:15:07.299Z,100443.86
2022-09-01T16:17:43.809Z,100439.58
2022-09-01T16:20:27.347Z,100443.13
2022-09-01T16:23:07.892Z,100438.23
2022-09-01T16:25:41.517Z,100444.18
2022-09-01T16:28:24.823Z,100446.23
2022-09-01T16:30:58.115Z,100445.91
2022-09-01T16:33:29.709Z,100444.48
2022-09-01T16:36:11.802Z,100444.13
2022-09-01T16:38:49.004Z,100441.39
2022-09-01T16:41:24.585Z,100440.00
2022-09-01T16:44:12.767Z,100441.07
2022-09-01T16:46:45.833Z,100441.99
2022-09-01T16:49:22.595Z,100448.84
2022-09-01T16:51:59.688Z,100449.73
2022-09-01T16:54:44.952Z,100445.53
2022-09-01T16:57:21.568Z,100446.03
2022-09-01T16:59:55.741Z,100445.96
2022-09-01T17:02:35.967Z,100449.19
2022-09-01T17:05:15.429Z,100452.44
2022-09-01T17:07:53.372Z,100454.52
2022-09-01T17:10:30.027Z,100454.59
2022-09-01T17:13:03.909Z,100460.77
2022-09-01T17:15:42.883Z,100460.81
2022-09-01T17:18:22.259Z,100466.77
2022-09-01T17:21:05.428Z,100467.19
2022-09-01T17:23:39.499Z,100468.29
2022-09-01T17:26:14.135Z,100470.50
2022-09-01T17:28:51.485Z,100471.61
2022-09-01T17:31:26.882Z,100476.65
2022-09-01T17:34:02.092Z,100477.09
2022-09-01T17:36:36.568Z,100476.08
2022-09-01T17:39:14.312Z,100481.62
2022-09-01T17:41:46.403Z,100481.84
2022-09-01T17:44:24.287Z,100491.23
2022-09-01T17:47:02.113Z,100491.17
2022-09-01T17:49:40.913Z,100493.48
2022-09-01T17:52:18.692Z,100501.48
2022-09-01T17:55:02.538Z,100503.62
2022-09-01T17:57:40.921Z,100508.99
2022-09-01T18:00:24.511Z,100512.30
2022-09-01T18:03:04.218Z,100514.17
2022-09-01T18:05:43.975Z,100513.54
2022-09-01T18:08:21.861Z,100518.55
2022-09-01T18:11:14.022Z,100519.14
2022-09-01T18:13:53.206Z,100521.05
2022-09-01T18:16:26.561Z,100521.49
2022-09-01T18:19:03.687Z,100524.34
2022-09-01T18:21:38.636Z,100521.05
2022-09-01T18:24:13.011Z,100521.80
2022-09-01T18:26:45.400Z,100522.98
2022-09-01T18:29:19.330Z,100522.98
2022-09-01T18:32:03.727Z,100523.23
2022-09-01T18:34:39.544Z,100525.44
2022-09-01T18:37:11.457Z,100527.10
2022-09-01T18:39:45.917Z,100530.39
2022-09-01T18:42:19.011Z,100528.98
2022-09-01T18:44:54.769Z,100540.21
2022-09-01T18:47:27.673Z,100545.08
2022-09-01T18:50:02.101Z,100539.23
2022-09-01T18:52:52.736Z,100544.95
2022-09-01T18:55:31.327Z,100546.35
2022-09-01T18:58:07.069Z,100545.65
2022-09-01T19:00:43.569Z,100550.42
2022-09-01T19:03:20.343Z,100553.25
2022-09-01T19:06:02.710Z,100553.64
2022-09-01T19:08:44.711Z,100557.20
2022-09-01T19:11:18.996Z,100561.69
2022-09-01T19:13:54.805Z,100560.10
2022-09-01T19:16:32.493Z,100562.42
2022-09-01T19:19:08.425Z,100558.57
2022-09-01T19:21:43.148Z,100561.34
2022-09-01T19:24:18.872Z,100562.90
2022-09-01T19:26:51.125Z,100562.09
2022-09-01T19:29:27.963Z,100565.16
2022-09-01T19:32:03.110Z,100572.99
2022-09-01T19:34:36.795Z,100576.86
2022-09-01T19:37:09.572Z,100574.25
2022-09-01T19:39:57.637Z,100576.77
2022-09-01T19:42:39.023Z,100582.95
2022-09-01T19:45:13.903Z,100587.24
2022-09-01T19:47:46.687Z,100590.33
2022-09-01T19:50:21.173Z,100595.58
2022-09-01T19:53:00.895Z,100599.84
2022-09-01T19:55:37.629Z,100605.70
2022-09-01T19:58:15.926Z,100604.38
2022-09-01T20:00:51.546Z,100608.23
2022-09-01T20:03:26.851Z,100606.14
2022-09-01T20:06:05.561Z,100613.20
2022-09-01T20:08:39.774Z,100613.83
2022-09-01T20:11:16.346Z,100616.79
2022-09-01T20:14:04.442Z,100619.07
2022-09-01T20:16:40.946Z,100624.58
2022-09-01T20:19:13.671Z,100626.36
2022-09-01T20:21:48.779Z,100626.90
2022-09-01T20:24:30.392Z,100622.87
2022-09-01T20:27:02.191Z,100626.58
2022-09-01T20:29:44.403Z,100627.66
2022-09-01T20:32:16.366Z,100630.40
2022-09-01T20:34:47.723Z,100634.89
2022-09-01T20:37:21.699Z,100632.41
2022-09-01T20:40:08.485Z,100638.86
2022-09-01T20:42:46.200Z,100636.27
2022-09-01T20:45:22.221Z,100637.03
2022-09-01T20:47:58.983Z,100631.92
2022-09-01T20:50:32.914Z,100637.77
2022-09-01T20:53:17.346Z,100636.98
2022-09-01T20:55:54.201Z,100639.86
2022-09-01T20:58:31.701Z,100636.48
2022-09-01T21:01:06.517Z,100633.74
2022-09-01T21:03:41.784Z,100635.24
2022-09-01T21:06:27.593Z,100633.54
2022-09-01T21:09:03.420Z,100633.81
2022-09-01T21:11:46.460Z,100630.33
2022-09-01T21:14:31.690Z,100628.89
2022-09-01T21:17:05.126Z,100628.45
2022-09-01T21:19:46.926Z,100633.00
2022-09-01T21:22:28.121Z,100631.50
2022-09-01T21:25:04.278Z,100632.73
2022-09-01T21:27:38.303Z,100631.39
2022-09-01T21:30:10.590Z,100634.02
2022-09-01T21:32:47.820Z,100634.34
2022-09-01T21:35:21.540Z,100637.02
2022-09-01T21:37:53.643Z,100635.77
2022-09-01T21:40:25.044Z,100638.14
2022-09-01T21:43:00.227Z,100632.84
2022-09-01T21:45:31.275Z,100631.80
2022-09-01T21:48:05.578Z,100631.27
2022-09-01T21:50:36.195Z,100633.90
2022-09-01T21:53:07.047Z,100636.15
2022-09-01T21:55:37.968Z,100638.88
2022-09-01T21:58:10.960Z,100637.02
2022-09-01T22:00:44.777Z,100640.95
2022-09-01T22:03:15.854Z,100639.46
2022-09-01T22:05:48.394Z,100636.94
2022-09-01T22:08:22.068Z,100633.63
2022-09-01T22:10:54.971Z,100637.20
2022-09-01T22:13:35.224Z,100638.25
2022-09-01T22:16:08.481Z,100639.46
2022-09-01T22:18:42.861Z,100644.92
2022-09-01T22:21:16.517Z,100645.08
2022-09-01T22:23:49.338Z,100652.79
2022-09-01T22:26:22.149Z,100651.48
2022-09-01T22:28:55.249Z,100651.83
2022-09-01T22:31:27.396Z,100653.85
2022-09-01T22:34:02.490Z,100651.53
2022-09-01T22:36:41.054Z,100654.67
2022-09-01T22:39:25.558Z,100654.86
2022-09-01T22:41:58.091Z,100648.41
2022-09-01T22:44:32.551Z,100648.84
2022-09-01T22:47:03.700Z,100643.73
2022-09-01T22:49:34.585Z,100653.35
2022-09-01T22:52:08.175Z,100652.43
2022-09-01T22:54:41.969Z,100653.55
2022-09-01T22:57:13.087Z,100650.48
2022-09-01T22:59:49.341Z,100649.81
2022-09-01T23:02:23.779Z,100648.20
2022-09-01T23:04:55.973Z,100644.83
2022-09-01T23:07:31.182Z,100643.97
2022-09-01T23:10:07.099Z,100638.20
2022-09-01T23:12:38.089Z,100636.21
2022-09-01T23:15:10.537Z,100632.02
2022-09-01T23:17:51.406Z,100627.39
2022-09-01T23:20:26.628Z,100627.29
2022-09-01T23:23:07.025Z,100627.11
2022-09-01T23:25:43.944Z,100619.23
2022-09-01T23:28:17.262Z,100615.72
2022-09-01T23:31:00.256Z,100613.70
2022-09-01T23:33:39.345Z,100613.27
2022-09-01T23:36:13.597Z,100612.90
2022-09-01T23:38:49.307Z,100614.65
2022-09-01T23:41:31.904Z,100616.02
2022-09-01T23:44:04.333Z,100623.02
2022-09-01T23:46:37.275Z,100622.39
2022-09-01T23:49:08.111Z,100622.27
2022-09-01T23:51:41.513Z,100620.59
2022-09-01T23:54:12.626Z,100620.75
2022-09-01T23:56:46.156Z,100621.93
2022-09-01T23:59:27.513Z,100621.43
